sensor_id;sensor_type;location;lat;lon;timestamp;pressure;altitude;pressure_sealevel;temperature;humidity
19827;BME280;10074;52.018;4.726;2022-12-20T00:04:56;46279.41;;;-144.79;100.00
19827;BME280;10074;52.018;4.726;2022-12-20T00:09:56;46291.44;;;-144.79;100.00
19827;BME280;10074;52.018;4.726;2022-12-20T00:14:57;46293.44;;;-144.79;100.00
19827;BME280;10074;52.018;4.726;2022-12-20T00:19:57;46291.44;;;-144.79;100.00
19827;BME280;10074;52.018;4.726;2022-12-20T00:24:57;46289.44;;;-144.79;100.00
19827;BME280;10074;52.018;4.726;2022-12-20T00:29:57;46285.41;;;-144.79;100.00
19827;BME280;10074;52.018;4.726;2022-12-20T00:34:58;46281.41;;;-144.79;100.00
19827;BME280;10074;52.018;4.726;2022-12-20T00:39:58;46279.41;;;-144.79;100.00
19827;BME280;10074;52.018;4.726;2022-12-20T00:44:58;46283.41;;;-144.79;100.00
19827;BME280;10074;52.018;4.726;2022-12-20T00:49:59;46287.44;;;-144.79;100.00
19827;BME280;10074;52.018;4.726;2022-12-20T00:54:59;46281.41;;;-144.79;100.00
19827;BME280;10074;52.018;4.726;2022-12-20T00:59:59;46285.41;;;-144.79;100.00
19827;BME280;10074;52.018;4.726;2022-12-20T01:05:00;46287.44;;;-144.79;100.00
19827;BME280;10074;52.018;4.726;2022-12-20T01:10:00;46285.41;;;-144.79;100.00
19827;BME280;10074;52.018;4.726;2022-12-20T01:15:00;46285.41;;;-144.79;100.00
19827;BME280;10074;52.018;4.726;2022-12-20T01:20:01;46283.41;;;-144.79;100.00
19827;BME280;10074;52.018;4.726;2022-12-20T01:25:01;46293.44;;;-144.79;100.00
19827;BME280;10074;52.018;4.726;2022-12-20T01:30:02;46287.44;;;-144.79;100.00
19827;BME280;10074;52.018;4.726;2022-12-20T01:35:02;46291.44;;;-144.79;100.00
19827;BME280;10074;52.018;4.726;2022-12-20T01:40:03;46287.44;;;-144.79;100.00
19827;BME280;10074;52.018;4.726;2022-12-20T01:45:07;46289.44;;;-144.79;100.00
19827;BME280;10074;52.018;4.726;2022-12-20T01:50:08;46277.41;;;-144.79;100.00
19827;BME280;10074;52.018;4.726;2022-12-20T01:55:12;46281.41;;;-144.79;100.00
19827;BME280;10074;52.018;4.726;2022-12-20T02:00:15;46281.41;;;-144.79;100.00
19827;BME280;10074;52.018;4.726;2022-12-20T02:05:18;46289.44;;;-144.79;100.00
19827;BME280;10074;52.018;4.726;2022-12-20T02:10:23;46285.41;;;-144.79;100.00
19827;BME280;10074;52.018;4.726;2022-12-20T02:15:56;46289.44;;;-144.79;100.00
19827;BME280;10074;52.018;4.726;2022-12-20T02:26:18;46285.41;;;-144.79;100.00
19827;BME280;10074;52.018;4.726;2022-12-20T02:31:29;46289.44;;;-144.79;100.00
19827;BME280;10074;52.018;4.726;2022-12-20T02:36:32;46289.44;;;-144.79;100.00
19827;BME280;10074;52.018;4.726;2022-12-20T02:41:36;46289.44;;;-144.79;100.00
19827;BME280;10074;52.018;4.726;2022-12-20T02:46:39;46291.44;;;-144.79;100.00
19827;BME280;10074;52.018;4.726;2022-12-20T02:51:42;46287.44;;;-144.79;100.00
19827;BME280;10074;52.018;4.726;2022-12-20T02:56:55;46287.44;;;-144.79;100.00
19827;BME280;10074;52.018;4.726;2022-12-20T03:01:56;46287.44;;;-144.79;100.00
19827;BME280;10074;52.018;4.726;2022-12-20T03:07:06;46283.41;;;-144.79;100.00
19827;BME280;10074;52.018;4.726;2022-12-20T03:12:08;46295.44;;;-144.79;100.00
19827;BME280;10074;52.018;4.726;2022-12-20T03:17:10;46283.41;;;-144.79;100.00
19827;BME280;10074;52.018;4.726;2022-12-20T03:22:11;46291.44;;;-144.79;100.00
19827;BME280;10074;52.018;4.726;2022-12-20T03:27:11;46291.44;;;-144.79;100.00
19827;BME280;10074;52.018;4.726;2022-12-20T03:32:11;46293.44;;;-144.79;100.00
19827;BME280;10074;52.018;4.726;2022-12-20T03:37:12;46295.44;;;-144.79;100.00
19827;BME280;10074;52.018;4.726;2022-12-20T03:42:12;46295.44;;;-144.79;100.00
19827;BME280;10074;52.018;4.726;2022-12-20T03:47:12;46293.44;;;-144.79;100.00
19827;BME280;10074;52.018;4.726;2022-12-20T03:52:13;46293.44;;;-144.79;100.00
19827;BME280;10074;52.018;4.726;2022-12-20T03:57:14;46293.44;;;-144.79;100.00
19827;BME280;10074;52.018;4.726;2022-12-20T04:02:15;46295.44;;;-144.79;100.00
19827;BME280;10074;52.018;4.726;2022-12-20T04:07:16;46291.44;;;-144.79;100.00
19827;BME280;10074;52.018;4.726;2022-12-20T04:12:17;46295.44;;;-144.79;100.00
19827;BME280;10074;52.018;4.726;2022-12-20T04:17:17;46297.44;;;-144.79;100.00
19827;BME280;10074;52.018;4.726;2022-12-20T04:22:17;46295.44;;;-144.79;100.00
19827;BME280;10074;52.018;4.726;2022-12-20T04:27:18;46289.44;;;-144.79;100.00
19827;BME280;10074;52.018;4.726;2022-12-20T04:32:18;46283.41;;;-144.79;100.00
19827;BME280;10074;52.018;4.726;2022-12-20T04:37:18;46293.44;;;-144.79;100.00
19827;BME280;10074;52.018;4.726;2022-12-20T04:42:19;46295.44;;;-144.79;100.00
19827;BME280;10074;52.018;4.726;2022-12-20T04:47:19;46297.44;;;-144.79;100.00
19827;BME280;10074;52.018;4.726;2022-12-20T04:52:19;46299.47;;;-144.79;100.00
19827;BME280;10074;52.018;4.726;2022-12-20T04:57:39;46299.47;;;-144.79;100.00
19827;BME280;10074;52.018;4.726;2022-12-20T05:02:39;46297.44;;;-144.79;100.00
19827;BME280;10074;52.018;4.726;2022-12-20T05:07:39;46295.44;;;-144.79;100.00
19827;BME280;10074;52.018;4.726;2022-12-20T05:12:40;46305.47;;;-144.79;100.00
19827;BME280;10074;52.018;4.726;2022-12-20T05:17:40;46299.47;;;-144.79;100.00
19827;BME280;10074;52.018;4.726;2022-12-20T05:22:40;46295.44;;;-144.79;100.00
19827;BME280;10074;52.018;4.726;2022-12-20T05:27:59;46303.47;;;-144.79;100.00
19827;BME280;10074;52.018;4.726;2022-12-20T05:33:00;46305.47;;;-144.79;100.00
19827;BME280;10074;52.018;4.726;2022-12-20T05:38:00;46335.53;;;-144.79;100.00
19827;BME280;10074;52.018;4.726;2022-12-20T05:43:01;46333.53;;;-144.79;100.00
19827;BME280;10074;52.018;4.726;2022-12-20T05:48:02;46297.44;;;-144.79;100.00
19827;BME280;10074;52.018;4.726;2022-12-20T05:53:02;46299.47;;;-144.79;100.00
19827;BME280;10074;52.018;4.726;2022-12-20T05:58:03;46305.47;;;-144.79;100.00
19827;BME280;10074;52.018;4.726;2022-12-20T06:03:03;46279.41;;;-144.79;100.00
19827;BME280;10074;52.018;4.726;2022-12-20T06:08:04;46289.44;;;-144.79;100.00
19827;BME280;10074;52.018;4.726;2022-12-20T06:13:05;46299.47;;;-144.79;100.00
19827;BME280;10074;52.018;4.726;2022-12-20T06:18:06;46303.47;;;-144.79;100.00
19827;BME280;10074;52.018;4.726;2022-12-20T06:23:07;46291.44;;;-144.79;100.00
19827;BME280;10074;52.018;4.726;2022-12-20T06:28:08;46295.44;;;-144.79;100.00
19827;BME280;10074;52.018;4.726;2022-12-20T06:33:09;46303.47;;;-144.79;100.00
19827;BME280;10074;52.018;4.726;2022-12-20T06:38:09;46345.56;;;-144.79;100.00
19827;BME280;10074;52.018;4.726;2022-12-20T06:43:09;46305.47;;;-144.79;100.00
19827;BME280;10074;52.018;4.726;2022-12-20T06:48:10;46301.47;;;-144.79;100.00
19827;BME280;10074;52.018;4.726;2022-12-20T06:53:10;46307.47;;;-144.79;100.00
19827;BME280;10074;52.018;4.726;2022-12-20T06:58:11;46303.47;;;-144.79;100.00
19827;BME280;10074;52.018;4.726;2022-12-20T07:03:13;46345.56;;;-144.79;100.00
19827;BME280;10074;52.018;4.726;2022-12-20T07:08:13;46345.56;;;-144.79;100.00
19827;BME280;10074;52.018;4.726;2022-12-20T07:13:14;46345.56;;;-144.79;100.00
19827;BME280;10074;52.018;4.726;2022-12-20T07:18:14;46305.47;;;-144.79;100.00
19827;BME280;10074;52.018;4.726;2022-12-20T07:23:15;46305.47;;;-144.79;100.00
19827;BME280;10074;52.018;4.726;2022-12-20T07:28:15;46335.53;;;-144.79;100.00
19827;BME280;10074;52.018;4.726;2022-12-20T07:33:16;46287.44;;;-144.79;100.00
19827;BME280;10074;52.018;4.726;2022-12-20T07:38:16;46295.44;;;-144.79;100.00
19827;BME280;10074;52.018;4.726;2022-12-20T07:43:16;46303.47;;;-144.79;100.00
19827;BME280;10074;52.018;4.726;2022-12-20T07:48:17;46297.44;;;-144.79;100.00
19827;BME280;10074;52.018;4.726;2022-12-20T07:53:19;46303.47;;;-144.79;100.00
19827;BME280;10074;52.018;4.726;2022-12-20T07:58:20;46347.56;;;-144.79;100.00
19827;BME280;10074;52.018;4.726;2022-12-20T08:03:31;46347.56;;;-144.79;100.00
19827;BME280;10074;52.018;4.726;2022-12-20T08:08:33;46303.47;;;-144.79;100.00
19827;BME280;10074;52.018;4.726;2022-12-20T08:13:35;46335.53;;;-144.79;100.00
19827;BME280;10074;52.018;4.726;2022-12-20T08:18:36;46347.56;;;-144.79;100.00
19827;BME280;10074;52.018;4.726;2022-12-20T08:23:36;46347.56;;;-144.79;100.00
19827;BME280;10074;52.018;4.726;2022-12-20T08:28:37;46349.59;;;-144.79;100.00
19827;BME280;10074;52.018;4.726;2022-12-20T08:33:38;46335.53;;;-144.79;100.00
19827;BME280;10074;52.018;4.726;2022-12-20T08:38:39;46345.56;;;-144.79;100.00
19827;BME280;10074;52.018;4.726;2022-12-20T08:43:41;46351.59;;;-144.79;100.00
19827;BME280;10074;52.018;4.726;2022-12-20T08:48:41;46347.56;;;-144.79;100.00
19827;BME280;10074;52.018;4.726;2022-12-20T08:53:42;46351.59;;;-144.79;100.00
19827;BME280;10074;52.018;4.726;2022-12-20T08:58:43;46351.59;;;-144.79;100.00
19827;BME280;10074;52.018;4.726;2022-12-20T09:03:44;46323.53;;;-144.79;100.00
19827;BME280;10074;52.018;4.726;2022-12-20T09:08:45;46379.66;;;-144.79;100.00
19827;BME280;10074;52.018;4.726;2022-12-20T09:13:48;46457.88;;;-144.79;100.00
19827;BME280;10074;52.018;4.726;2022-12-20T09:18:50;46451.84;;;-144.79;100.00
19827;BME280;10074;52.018;4.726;2022-12-20T09:23:52;46439.81;;;-144.79;100.00
19827;BME280;10074;52.018;4.726;2022-12-20T09:28:53;46435.81;;;-144.79;100.00
19827;BME280;10074;52.018;4.726;2022-12-20T09:33:55;46443.81;;;-144.79;100.00
19827;BME280;10074;52.018;4.726;2022-12-20T09:38:57;46453.84;;;-144.79;100.00
19827;BME280;10074;52.018;4.726;2022-12-20T09:43:59;46449.84;;;-144.79;100.00
19827;BME280;10074;52.018;4.726;2022-12-20T09:49:03;46451.84;;;-144.79;100.00
19827;BME280;10074;52.018;4.726;2022-12-20T09:59:17;46453.84;;;-144.79;100.00
19827;BME280;10074;52.018;4.726;2022-12-20T10:04:20;46455.84;;;-144.79;100.00
19827;BME280;10074;52.018;4.726;2022-12-20T10:30:21;46467.88;;;-144.79;100.00
19827;BME280;10074;52.018;4.726;2022-12-20T10:35:48;46465.88;;;-144.79;100.00
19827;BME280;10074;52.018;4.726;2022-12-20T10:41:02;46467.88;;;-144.79;100.00
19827;BME280;10074;52.018;4.726;2022-12-20T10:46:04;46467.88;;;-144.79;100.00
19827;BME280;10074;52.018;4.726;2022-12-20T11:01:17;46471.91;;;-144.79;100.00
19827;BME280;10074;52.018;4.726;2022-12-20T11:06:19;46463.88;;;-144.79;100.00
19827;BME280;10074;52.018;4.726;2022-12-20T11:11:22;46463.88;;;-144.79;100.00
19827;BME280;10074;52.018;4.726;2022-12-20T11:16:36;46465.88;;;-144.79;100.00
19827;BME280;10074;52.018;4.726;2022-12-20T11:38:09;46465.88;;;-144.79;100.00
19827;BME280;10074;52.018;4.726;2022-12-20T11:54:00;46467.88;;;-144.79;100.00
19827;BME280;10074;52.018;4.726;2022-12-20T11:59:09;46467.88;;;-144.79;100.00
19827;BME280;10074;52.018;4.726;2022-12-20T12:04:18;46465.88;;;-144.79;100.00
19827;BME280;10074;52.018;4.726;2022-12-20T12:14:41;46467.88;;;-144.79;100.00
19827;BME280;10074;52.018;4.726;2022-12-20T12:19:48;46471.91;;;-144.79;100.00
19827;BME280;10074;52.018;4.726;2022-12-20T12:24:52;46461.88;;;-144.79;100.00
19827;BME280;10074;52.018;4.726;2022-12-20T12:29:55;46471.91;;;-144.79;100.00
19827;BME280;10074;52.018;4.726;2022-12-20T12:45:36;46471.91;;;-144.79;100.00
19827;BME280;10074;52.018;4.726;2022-12-20T12:50:45;46465.88;;;-144.79;100.00
19827;BME280;10074;52.018;4.726;2022-12-20T12:55:51;46475.91;;;-144.79;100.00
19827;BME280;10074;52.018;4.726;2022-12-20T13:00:54;46467.88;;;-144.79;100.00
19827;BME280;10074;52.018;4.726;2022-12-20T13:05:54;46465.88;;;-144.79;100.00
19827;BME280;10074;52.018;4.726;2022-12-20T13:10:57;46471.91;;;-144.79;100.00
19827;BME280;10074;52.018;4.726;2022-12-20T13:16:10;46471.91;;;-144.79;100.00
19827;BME280;10074;52.018;4.726;2022-12-20T13:21:17;46469.88;;;-144.79;100.00
19827;BME280;10074;52.018;4.726;2022-12-20T13:26:57;46465.88;;;-144.79;100.00
19827;BME280;10074;52.018;4.726;2022-12-20T13:31:59;46465.88;;;-144.79;100.00
19827;BME280;10074;52.018;4.726;2022-12-20T13:36:59;46467.88;;;-144.79;100.00
19827;BME280;10074;52.018;4.726;2022-12-20T13:42:19;46467.88;;;-144.79;100.00
19827;BME280;10074;52.018;4.726;2022-12-20T13:52:31;46467.88;;;-144.79;100.00
19827;BME280;10074;52.018;4.726;2022-12-20T13:57:40;46469.88;;;-144.79;100.00
19827;BME280;10074;52.018;4.726;2022-12-20T14:02:41;46471.91;;;-144.79;100.00
19827;BME280;10074;52.018;4.726;2022-12-20T14:07:42;46467.88;;;-144.79;100.00
19827;BME280;10074;52.018;4.726;2022-12-20T14:12:45;46465.88;;;-144.79;100.00
19827;BME280;10074;52.018;4.726;2022-12-20T14:17:46;46469.88;;;-144.79;100.00
19827;BME280;10074;52.018;4.726;2022-12-20T14:27:47;46467.88;;;-144.79;100.00
19827;BME280;10074;52.018;4.726;2022-12-20T14:32:48;46465.88;;;-144.79;100.00
19827;BME280;10074;52.018;4.726;2022-12-20T14:37:54;46461.88;;;-144.79;100.00
19827;BME280;10074;52.018;4.726;2022-12-20T14:42:54;46465.88;;;-144.79;100.00
19827;BME280;10074;52.018;4.726;2022-12-20T14:48:04;46467.88;;;-144.79;100.00
19827;BME280;10074;52.018;4.726;2022-12-20T14:53:22;46467.88;;;-144.79;100.00
19827;BME280;10074;52.018;4.726;2022-12-20T14:58:32;46465.88;;;-144.79;100.00
19827;BME280;10074;52.018;4.726;2022-12-20T15:03:33;46467.88;;;-144.79;100.00
19827;BME280;10074;52.018;4.726;2022-12-20T15:08:36;46467.88;;;-144.79;100.00
19827;BME280;10074;52.018;4.726;2022-12-20T15:13:42;46465.88;;;-144.79;100.00
19827;BME280;10074;52.018;4.726;2022-12-20T15:18:43;46467.88;;;-144.79;100.00
19827;BME280;10074;52.018;4.726;2022-12-20T15:23:50;46467.88;;;-144.79;100.00
19827;BME280;10074;52.018;4.726;2022-12-20T15:28:51;46465.88;;;-144.79;100.00
19827;BME280;10074;52.018;4.726;2022-12-20T15:33:53;46459.88;;;-144.79;100.00
19827;BME280;10074;52.018;4.726;2022-12-20T15:38:55;46469.88;;;-144.79;100.00
19827;BME280;10074;52.018;4.726;2022-12-20T15:43:58;46463.88;;;-144.79;100.00
19827;BME280;10074;52.018;4.726;2022-12-20T15:48:59;46461.88;;;-144.79;100.00
19827;BME280;10074;52.018;4.726;2022-12-20T15:54:02;46467.88;;;-144.79;100.00
19827;BME280;10074;52.018;4.726;2022-12-20T15:59:03;46461.88;;;-144.79;100.00
19827;BME280;10074;52.018;4.726;2022-12-20T16:04:05;46469.88;;;-144.79;100.00
19827;BME280;10074;52.018;4.726;2022-12-20T16:09:05;46469.88;;;-144.79;100.00
19827;BME280;10074;52.018;4.726;2022-12-20T16:14:09;46469.88;;;-144.79;100.00
19827;BME280;10074;52.018;4.726;2022-12-20T16:19:13;46471.91;;;-144.79;100.00
19827;BME280;10074;52.018;4.726;2022-12-20T16:24:16;46475.91;;;-144.79;100.00
19827;BME280;10074;52.018;4.726;2022-12-20T16:29:16;46465.88;;;-144.79;100.00
19827;BME280;10074;52.018;4.726;2022-12-20T16:34:17;46471.91;;;-144.79;100.00
19827;BME280;10074;52.018;4.726;2022-12-20T16:39:18;46467.88;;;-144.79;100.00
19827;BME280;10074;52.018;4.726;2022-12-20T16:44:18;46469.88;;;-144.79;100.00
19827;BME280;10074;52.018;4.726;2022-12-20T16:49:18;46471.91;;;-144.79;100.00
19827;BME280;10074;52.018;4.726;2022-12-20T16:54:21;46471.91;;;-144.79;100.00
19827;BME280;10074;52.018;4.726;2022-12-20T16:59:22;46465.88;;;-144.79;100.00
19827;BME280;10074;52.018;4.726;2022-12-20T17:04:23;46477.91;;;-144.79;100.00
19827;BME280;10074;52.018;4.726;2022-12-20T17:09:25;46471.91;;;-144.79;100.00
19827;BME280;10074;52.018;4.726;2022-12-20T17:14:25;46469.88;;;-144.79;100.00
19827;BME280;10074;52.018;4.726;2022-12-20T17:19:25;46469.88;;;-144.79;100.00
19827;BME280;10074;52.018;4.726;2022-12-20T17:24:26;46467.88;;;-144.79;100.00
19827;BME280;10074;52.018;4.726;2022-12-20T17:29:26;46469.88;;;-144.79;100.00
19827;BME280;10074;52.018;4.726;2022-12-20T17:34:28;46463.88;;;-144.79;100.00
19827;BME280;10074;52.018;4.726;2022-12-20T17:39:29;46467.88;;;-144.79;100.00
19827;BME280;10074;52.018;4.726;2022-12-20T17:44:29;46465.88;;;-144.79;100.00
19827;BME280;10074;52.018;4.726;2022-12-20T17:49:30;46467.88;;;-144.79;100.00
19827;BME280;10074;52.018;4.726;2022-12-20T17:54:31;46469.88;;;-144.79;100.00
19827;BME280;10074;52.018;4.726;2022-12-20T17:59:31;46463.88;;;-144.79;100.00
19827;BME280;10074;52.018;4.726;2022-12-20T18:04:31;46465.88;;;-144.79;100.00
19827;BME280;10074;52.018;4.726;2022-12-20T18:09:32;46469.88;;;-144.79;100.00
19827;BME280;10074;52.018;4.726;2022-12-20T18:14:32;46467.88;;;-144.79;100.00
19827;BME280;10074;52.018;4.726;2022-12-20T18:19:32;46471.91;;;-144.79;100.00
19827;BME280;10074;52.018;4.726;2022-12-20T18:24:32;46467.88;;;-144.79;100.00
19827;BME280;10074;52.018;4.726;2022-12-20T18:29:33;46467.88;;;-144.79;100.00
19827;BME280;10074;52.018;4.726;2022-12-20T18:34:33;46471.91;;;-144.79;100.00
19827;BME280;10074;52.018;4.726;2022-12-20T18:39:34;46467.88;;;-144.79;100.00
19827;BME280;10074;52.018;4.726;2022-12-20T18:44:34;46469.88;;;-144.79;100.00
19827;BME280;10074;52.018;4.726;2022-12-20T18:49:35;46467.88;;;-144.79;100.00
19827;BME280;10074;52.018;4.726;2022-12-20T18:54:36;46467.88;;;-144.79;100.00
19827;BME280;10074;52.018;4.726;2022-12-20T18:59:36;46471.91;;;-144.79;100.00
19827;BME280;10074;52.018;4.726;2022-12-20T19:04:37;46469.88;;;-144.79;100.00
19827;BME280;10074;52.018;4.726;2022-12-20T19:09:37;46465.88;;;-144.79;100.00
19827;BME280;10074;52.018;4.726;2022-12-20T19:14:37;46467.88;;;-144.79;100.00
19827;BME280;10074;52.018;4.726;2022-12-20T19:19:38;46467.88;;;-144.79;100.00
19827;BME280;10074;52.018;4.726;2022-12-20T19:24:38;46467.88;;;-144.79;100.00
19827;BME280;10074;52.018;4.726;2022-12-20T19:29:38;46467.88;;;-144.79;100.00
19827;BME280;10074;52.018;4.726;2022-12-20T19:34:39;46467.88;;;-144.79;100.00
19827;BME280;10074;52.018;4.726;2022-12-20T19:39:39;46467.88;;;-144.79;100.00
19827;BME280;10074;52.018;4.726;2022-12-20T19:44:39;46467.88;;;-144.79;100.00
19827;BME280;10074;52.018;4.726;2022-12-20T19:49:39;46465.88;;;-144.79;100.00
19827;BME280;10074;52.018;4.726;2022-12-20T19:54:40;46469.88;;;-144.79;100.00
19827;BME280;10074;52.018;4.726;2022-12-20T19:59:42;46467.88;;;-144.79;100.00
19827;BME280;10074;52.018;4.726;2022-12-20T20:04:42;46473.91;;;-144.79;100.00
19827;BME280;10074;52.018;4.726;2022-12-20T20:09:42;46469.88;;;-144.79;100.00
19827;BME280;10074;52.018;4.726;2022-12-20T20:14:43;46469.88;;;-144.79;100.00
19827;BME280;10074;52.018;4.726;2022-12-20T20:19:43;46465.88;;;-144.79;100.00
19827;BME280;10074;52.018;4.726;2022-12-20T20:24:45;46475.91;;;-144.79;100.00
19827;BME280;10074;52.018;4.726;2022-12-20T20:29:48;46469.88;;;-144.79;100.00
19827;BME280;10074;52.018;4.726;2022-12-20T20:34:49;46467.88;;;-144.79;100.00
19827;BME280;10074;52.018;4.726;2022-12-20T20:39:49;46469.88;;;-144.79;100.00
19827;BME280;10074;52.018;4.726;2022-12-20T20:44:49;46469.88;;;-144.79;100.00
19827;BME280;10074;52.018;4.726;2022-12-20T20:49:50;46473.91;;;-144.79;100.00
19827;BME280;10074;52.018;4.726;2022-12-20T20:54:52;46469.88;;;-144.79;100.00
19827;BME280;10074;52.018;4.726;2022-12-20T20:59:52;46469.88;;;-144.79;100.00
19827;BME280;10074;52.018;4.726;2022-12-20T21:04:52;46471.91;;;-144.79;100.00
19827;BME280;10074;52.018;4.726;2022-12-20T21:09:52;46473.91;;;-144.79;100.00
19827;BME280;10074;52.018;4.726;2022-12-20T21:14:53;46473.91;;;-144.79;100.00
19827;BME280;10074;52.018;4.726;2022-12-20T21:19:53;46467.88;;;-144.79;100.00
19827;BME280;10074;52.018;4.726;2022-12-20T21:24:53;46471.91;;;-144.79;100.00
19827;BME280;10074;52.018;4.726;2022-12-20T21:29:54;46471.91;;;-144.79;100.00
19827;BME280;10074;52.018;4.726;2022-12-20T21:34:54;46469.88;;;-144.79;100.00
19827;BME280;10074;52.018;4.726;2022-12-20T21:39:54;46471.91;;;-144.79;100.00
19827;BME280;10074;52.018;4.726;2022-12-20T21:44:54;46469.88;;;-144.79;100.00
19827;BME280;10074;52.018;4.726;2022-12-20T21:49:55;46467.88;;;-144.79;100.00
19827;BME280;10074;52.018;4.726;2022-12-20T21:54:56;46471.91;;;-144.79;100.00
19827;BME280;10074;52.018;4.726;2022-12-20T21:59:56;46473.91;;;-144.79;100.00
19827;BME280;10074;52.018;4.726;2022-12-20T22:04:57;46471.91;;;-144.79;100.00
19827;BME280;10074;52.018;4.726;2022-12-20T22:09:57;46475.91;;;-144.79;100.00
19827;BME280;10074;52.018;4.726;2022-12-20T22:14:57;46475.91;;;-144.79;100.00
19827;BME280;10074;52.018;4.726;2022-12-20T22:19:57;46469.88;;;-144.79;100.00
19827;BME280;10074;52.018;4.726;2022-12-20T22:24:58;46465.88;;;-144.79;100.00
19827;BME280;10074;52.018;4.726;2022-12-20T22:29:58;46465.88;;;-144.79;100.00
19827;BME280;10074;52.018;4.726;2022-12-20T22:34:58;46469.88;;;-144.79;100.00
19827;BME280;10074;52.018;4.726;2022-12-20T22:39:59;46471.91;;;-144.79;100.00
19827;BME280;10074;52.018;4.726;2022-12-20T22:44:59;46471.91;;;-144.79;100.00
19827;BME280;10074;52.018;4.726;2022-12-20T22:49:59;46469.88;;;-144.79;100.00
19827;BME280;10074;52.018;4.726;2022-12-20T22:55:00;46471.91;;;-144.79;100.00
19827;BME280;10074;52.018;4.726;2022-12-20T23:00:00;46469.88;;;-144.79;100.00
19827;BME280;10074;52.018;4.726;2022-12-20T23:05:01;46469.88;;;-144.79;100.00
19827;BME280;10074;52.018;4.726;2022-12-20T23:10:01;46471.91;;;-144.79;100.00
19827;BME280;10074;52.018;4.726;2022-12-20T23:15:01;46469.88;;;-144.79;100.00
19827;BME280;10074;52.018;4.726;2022-12-20T23:20:20;46467.88;;;-144.79;100.00
19827;BME280;10074;52.018;4.726;2022-12-20T23:25:39;46471.91;;;-144.79;100.00
19827;BME280;10074;52.018;4.726;2022-12-20T23:30:42;46467.88;;;-144.79;100.00
19827;BME280;10074;52.018;4.726;2022-12-20T23:35:42;46467.88;;;-144.79;100.00
19827;BME280;10074;52.018;4.726;2022-12-20T23:40:43;46467.88;;;-144.79;100.00
19827;BME280;10074;52.018;4.726;2022-12-20T23:45:43;46471.91;;;-144.79;100.00
19827;BME280;10074;52.018;4.726;2022-12-20T23:50:44;46467.88;;;-144.79;100.00
19827;BME280;10074;52.018;4.726;2022-12-20T23:56:04;46467.88;;;-144.79;100.00
